Time;durP1;ratioP1;P1;durP2;ratioP2;P2;SDS_P1;SDS_P2;PMS_P1;PMS_P2;Temp;Humidity;BMP_temperature;BMP_pressure;BME280_temperature;BME280_humidity;BME280_pressure;Samples;Min_cycle;Max_cycle;Signal;HPM_P1;HPM_P2
2021/06/04 00:02:05;;;;;;;40.78;28.50;;;;;;;17.20;100.00;102011.03;3573020;40;20043;-66
2021/06/04 00:04:31;;;;;;;42.78;29.80;;;;;;;17.19;100.00;102010.16;3569510;40;20054;-66
2021/06/04 00:06:57;;;;;;;44.20;30.92;;;;;;;17.17;100.00;102007.59;3572941;40;20063;-66
2021/06/04 00:09:23;;;;;;;42.63;29.63;;;;;;;17.32;100.00;102010.66;3573901;40;21267;-66
2021/06/04 00:11:52;;;;;;;41.97;28.73;;;;;;;17.27;100.00;102013.00;3570608;40;20528;-66
2021/06/04 00:14:21;;;;;;;45.92;31.80;;;;;;;17.22;100.00;102007.13;3570521;40;20723;-66
2021/06/04 00:16:51;;;;;;;50.08;33.03;;;;;;;17.19;100.00;102003.88;3568940;40;20056;-65
2021/06/04 00:19:20;;;;;;;42.88;28.73;;;;;;;17.20;100.00;102011.03;3569581;40;20052;-66
2021/06/04 00:21:49;;;;;;;43.15;30.67;;;;;;;17.27;100.00;101999.41;3569335;40;20037;-67
2021/06/04 00:24:16;;;;;;;51.08;32.25;;;;;;;17.22;100.00;102004.41;3569498;40;20082;-66
2021/06/04 00:26:45;;;;;;;44.13;31.25;;;;;;;17.28;100.00;101994.81;3571039;40;20157;-66
2021/06/04 00:29:12;;;;;;;41.63;29.45;;;;;;;17.30;100.00;101999.09;3572790;40;20041;-66
2021/06/04 00:31:39;;;;;;;44.20;30.38;;;;;;;17.21;100.00;101993.69;3570829;40;20076;-66
2021/06/04 00:34:08;;;;;;;46.72;30.63;;;;;;;17.11;100.00;101997.34;3570195;40;20068;-66
2021/06/04 00:36:34;;;;;;;42.97;30.17;;;;;;;17.07;100.00;101998.63;3570898;40;20045;-66
2021/06/04 00:39:05;;;;;;;43.40;31.13;;;;;;;17.05;100.00;101997.94;3570343;40;20044;-66
2021/06/04 00:41:36;;;;;;;45.22;30.48;;;;;;;16.92;100.00;101998.28;3570257;40;20126;-66
2021/06/04 00:44:03;;;;;;;47.03;31.80;;;;;;;16.88;100.00;101994.16;3571182;40;20056;-66
2021/06/04 00:49:46;;;;;;;47.28;32.15;;;;;;;16.99;100.00;102007.56;3603925;22;20051;-66
2021/06/04 00:52:15;;;;;;;45.45;31.77;;;;;;;16.94;100.00;101998.13;3573193;40;20038;-66
2021/06/04 00:54:42;;;;;;;51.30;31.63;;;;;;;16.94;100.00;101990.81;3573754;39;20109;-66
2021/06/04 00:57:08;;;;;;;46.83;33.72;;;;;;;16.93;100.00;101994.56;3574541;39;20064;-66
2021/06/04 00:59:37;;;;;;;49.95;33.80;;;;;;;16.84;100.00;101992.69;3574600;40;20161;-66
2021/06/04 01:02:04;;;;;;;50.80;32.70;;;;;;;16.81;100.00;101996.59;3570607;40;20064;-65
2021/06/04 01:04:31;;;;;;;49.85;31.90;;;;;;;16.81;100.00;101996.59;3572293;40;20059;-66
2021/06/04 01:07:03;;;;;;;52.92;35.10;;;;;;;16.65;100.00;101990.91;3571221;40;20210;-66
2021/06/04 01:09:45;;;;;;;51.10;32.03;;;;;;;16.61;100.00;101989.50;3571704;39;20053;-65
2021/06/04 01:12:44;;;;;;;49.92;33.83;;;;;;;16.55;100.00;102001.81;3570685;39;20056;-67
2021/06/04 01:15:16;;;;;;;48.20;31.98;;;;;;;16.59;100.00;101996.94;3573080;39;20102;-66
2021/06/04 01:17:48;;;;;;;47.28;33.70;;;;;;;16.65;100.00;101990.91;3570923;39;20596;-66
2021/06/04 01:20:17;;;;;;;50.83;32.22;;;;;;;16.67;100.00;101994.34;3570107;39;20032;-66
2021/06/04 01:23:15;;;;;;;47.70;33.15;;;;;;;16.72;100.00;101994.75;3573361;39;20070;-66
2021/06/04 01:25:48;;;;;;;46.72;31.42;;;;;;;16.77;100.00;101999.75;3573788;39;20059;-66
2021/06/04 01:28:22;;;;;;;53.63;33.47;;;;;;;16.61;100.00;102001.22;3572054;39;20070;-66
2021/06/04 01:30:52;;;;;;;52.53;33.53;;;;;;;16.58;100.00;101997.97;3572756;40;20440;-66
2021/06/04 01:33:22;;;;;;;51.95;33.25;;;;;;;16.58;100.00;102004.25;3570238;40;20074;-65
2021/06/04 01:35:51;;;;;;;51.83;33.88;;;;;;;16.48;100.00;102003.41;3573110;39;20137;-66
2021/06/04 01:38:22;;;;;;;49.35;32.72;;;;;;;16.49;100.00;101996.09;3572584;39;20060;-65
2021/06/04 01:40:51;;;;;;;53.97;35.88;;;;;;;16.49;100.00;102002.41;3571571;39;20147;-65
2021/06/04 01:43:21;;;;;;;52.22;35.42;;;;;;;16.46;100.00;102003.56;3573125;40;20040;-66
2021/06/04 01:45:54;;;;;;;55.88;37.13;;;;;;;16.39;100.00;102002.44;3574286;40;20040;-66
2021/06/04 01:48:24;;;;;;;52.97;35.17;;;;;;;16.40;100.00;102003.28;3572063;39;20325;-66
2021/06/04 01:50:57;;;;;;;52.85;33.75;;;;;;;16.37;100.00;102003.56;3574013;40;20060;-66
2021/06/04 01:53:28;;;;;;;56.03;35.78;;;;;;;16.34;100.00;102003.88;3570305;39;20301;-65
2021/06/04 01:56:00;;;;;;;53.38;34.75;;;;;;;16.18;100.00;101999.91;3572231;39;20040;-66
2021/06/04 01:58:29;;;;;;;57.13;35.90;;;;;;;16.01;100.00;102003.34;3573999;39;20510;-66
2021/06/04 02:01:02;;;;;;;54.80;37.47;;;;;;;16.10;100.00;102008.75;3585380;39;20068;-66
2021/06/04 02:03:28;;;;;;;52.72;36.28;;;;;;;16.11;100.00;101996.91;3584426;39;20056;-66
2021/06/04 02:05:56;;;;;;;53.70;35.95;;;;;;;16.18;100.00;102001.75;3586283;39;20044;-66
2021/06/04 02:08:27;;;;;;;46.72;30.80;;;;;;;16.05;100.00;102000.19;3583457;39;20128;-66
2021/06/04 02:10:53;;;;;;;53.05;35.95;;;;;;;15.90;100.00;101996.19;3574812;39;20060;-66
2021/06/04 02:13:22;;;;;;;55.03;34.42;;;;;;;15.81;100.00;102003.38;3574643;39;20130;-66
2021/06/04 02:15:52;;;;;;;52.67;33.77;;;;;;;15.80;100.00;101995.34;3577119;39;20107;-66
2021/06/04 02:18:22;;;;;;;52.60;34.40;;;;;;;15.74;100.00;101992.16;3572573;39;20275;-66
2021/06/04 02:20:53;;;;;;;60.00;36.97;;;;;;;15.75;100.00;101991.19;3574917;39;20044;-66
2021/06/04 02:23:24;;;;;;;53.70;34.35;;;;;;;15.81;100.00;101999.78;3573679;40;20315;-66
2021/06/04 02:25:58;;;;;;;51.78;33.67;;;;;;;15.84;100.00;101996.78;3572474;39;20405;-66
2021/06/04 02:28:30;;;;;;;48.22;33.83;;;;;;;15.83;100.00;101995.94;3574270;39;20059;-66
2021/06/04 02:31:02;;;;;;;55.30;35.90;;;;;;;15.89;100.00;101989.91;3573550;40;20428;-66
2021/06/04 02:33:34;;;;;;;45.97;31.98;;;;;;;15.98;100.00;101990.91;3573542;39;20043;-66
2021/06/04 02:36:04;;;;;;;53.83;35.58;;;;;;;16.02;100.00;101991.47;3577928;39;20396;-66
2021/06/04 02:38:35;;;;;;;48.40;33.58;;;;;;;15.98;100.00;101998.22;3573303;39;20357;-66
2021/06/04 02:43:57;;;;;;;45.35;31.17;;;;;;;15.97;100.00;101994.63;3590144;22;20057;-66
2021/06/04 02:46:29;;;;;;;47.42;32.20;;;;;;;15.93;100.00;101995.94;3580669;39;20444;-65
2021/06/04 02:48:56;;;;;;;45.95;32.00;;;;;;;15.89;100.00;101994.50;3588784;39;20060;-66
2021/06/04 02:51:29;;;;;;;47.95;31.48;;;;;;;15.77;100.00;101997.31;3582610;39;20064;-65
2021/06/04 02:53:59;;;;;;;48.10;32.45;;;;;;;15.63;100.00;102000.44;3583860;39;20044;-66
2021/06/04 02:56:26;;;;;;;;;;;;;;;15.68;100.00;102009.03;3584172;39;20063;-66
2021/06/04 02:58:58;;;;;;;53.10;33.53;;;;;;;15.70;100.00;102006.19;3588165;39;19928;-66
2021/06/04 03:01:25;;;;;;;50.05;33.72;;;;;;;15.68;100.00;102003.59;3584485;39;20063;-66
2021/06/04 03:03:52;;;;;;;45.58;32.42;;;;;;;15.69;100.00;102001.72;3583207;39;20056;-66
2021/06/04 03:06:24;;;;;;;44.72;31.67;;;;;;;15.66;100.00;102011.00;3581726;39;20052;-66
2021/06/04 03:08:51;;;;;;;46.75;33.83;;;;;;;15.52;100.00;102014.16;3583650;39;20036;-66
2021/06/04 03:11:19;;;;;;;55.53;35.17;;;;;;;15.41;100.00;102023.25;3582055;39;20048;-66
2021/06/04 03:13:46;;;;;;;47.60;32.63;;;;;;;15.48;100.00;102023.56;3585385;39;20060;-66
2021/06/04 03:16:17;;;;;;;58.22;36.53;;;;;;;15.47;100.00;102017.25;3583771;39;20064;-66
2021/06/04 03:18:46;;;;;;;49.25;32.17;;;;;;;15.49;100.00;102019.84;3585690;39;20111;-66
2021/06/04 03:21:16;;;;;;;51.47;34.22;;;;;;;15.47;100.00;102017.25;3582291;39;20147;-66
2021/06/04 03:23:43;;;;;;;51.15;34.65;;;;;;;15.51;100.00;102017.84;3581741;39;20465;-65
2021/06/04 03:29:28;;;;;;;56.08;35.00;;;;;;;15.43;100.00;102026.72;3604111;23;20594;-65
2021/06/04 03:32:00;;;;;;;54.28;35.65;;;;;;;15.37;100.00;102022.69;3574219;40;20037;-65
2021/06/04 03:34:28;;;;;;;57.28;37.75;;;;;;;15.27;100.00;102021.81;3570119;40;20407;-65
2021/06/04 03:36:57;;;;;;;54.80;37.17;;;;;;;15.23;100.00;102025.78;3569293;40;20176;-65
2021/06/04 03:39:28;;;;;;;57.65;37.58;;;;;;;15.29;100.00;102027.94;3571062;40;20055;-65
2021/06/04 03:41:56;;;;;;;58.58;38.00;;;;;;;15.29;100.00;102019.81;3569545;40;20044;-65
2021/06/04 03:44:26;;;;;;;53.08;35.03;;;;;;;15.44;100.00;102032.97;3569905;40;20064;-66
2021/06/04 03:46:53;;;;;;;50.55;35.88;;;;;;;15.51;100.00;102034.13;3571743;40;20060;-66
2021/06/04 03:49:23;;;;;;;54.20;35.08;;;;;;;15.52;100.00;102030.44;3569812;40;20110;-66
2021/06/04 03:51:52;;;;;;;52.13;33.75;;;;;;;15.59;100.00;102037.00;3569809;40;20437;-66
2021/06/04 03:54:21;;;;;;;50.58;34.72;;;;;;;15.61;100.00;102029.59;3570253;40;20100;-66
2021/06/04 03:56:48;;;;;;;47.22;32.00;;;;;;;15.62;100.00;102031.31;3568793;40;20067;-65
2021/06/04 03:59:14;;;;;;;47.97;33.30;;;;;;;15.58;100.00;102027.16;3571059;40;20032;-65
2021/06/04 04:01:44;;;;;;;53.05;34.20;;;;;;;15.58;100.00;102033.44;3567044;40;20056;-65
2021/06/04 04:04:11;;;;;;;56.65;36.63;;;;;;;15.53;100.00;102032.13;3566586;40;20041;-65
2021/06/04 04:06:38;;;;;;;57.60;35.75;;;;;;;15.49;100.00;102042.41;3569254;40;20553;-65
2021/06/04 04:09:05;;;;;;;55.47;36.33;;;;;;;15.44;100.00;102038.41;3567168;40;20528;-66
2021/06/04 04:11:32;;;;;;;53.80;34.88;;;;;;;15.48;100.00;102050.69;3561971;40;20053;-65
2021/06/04 04:13:58;;;;;;;51.33;36.47;;;;;;;15.38;100.00;102048.81;3562207;40;20052;-65
2021/06/04 04:16:25;;;;;;;52.15;34.17;;;;;;;15.61;100.00;102040.44;3565263;40;20064;-65
2021/06/04 04:18:51;;;;;;;51.03;35.03;;;;;;;15.67;100.00;102042.59;3566349;40;20053;-66
2021/06/04 04:21:17;;;;;;;48.97;34.17;;;;;;;15.83;100.00;102052.09;3561532;40;20049;-66
2021/06/04 04:23:47;;;;;;;49.65;34.25;;;;;;;15.91;100.00;102044.91;3568066;40;20358;-66
2021/06/04 04:26:17;;;;;;;49.97;33.13;;;;;;;15.90;100.00;102050.50;3570082;40;20363;-65
2021/06/04 04:28:45;;;;;;;53.10;34.53;;;;;;;15.83;100.00;102055.66;3567016;40;20025;-66
2021/06/04 04:31:15;;;;;;;54.90;33.83;;;;;;;16.03;100.00;102056.53;3564515;40;20146;-65
2021/06/04 04:33:40;;;;;;;;;;;;;;;16.14;100.00;102046.53;3567576;40;20071;-66
2021/06/04 04:36:08;;;;;;;43.20;31.90;;;;;;;16.26;100.00;102051.63;3570587;40;19988;-66
2021/06/04 04:38:34;;;;;;;50.33;33.05;;;;;;;16.13;100.00;102055.66;3567122;40;20140;-66
2021/06/04 04:41:03;;;;;;;47.03;31.48;;;;;;;16.22;100.00;102057.50;3570162;40;20053;-66
2021/06/04 04:43:31;;;;;;;46.35;31.85;;;;;;;16.28;100.00;102054.19;3568647;40;20447;-66
2021/06/04 04:45:58;;;;;;;49.35;33.17;;;;;;;16.36;100.00;102053.50;3653300;22;20346;-66
2021/06/04 04:48:24;;;;;;;45.95;32.33;;;;;;;16.38;100.00;102055.06;3560422;40;20051;-66
2021/06/04 04:50:50;;;;;;;47.78;31.52;;;;;;;16.60;100.00;102062.03;3560864;40;20042;-65
2021/06/04 04:53:17;;;;;;;46.45;31.73;;;;;;;17.16;100.00;102067.59;3560438;40;20394;-66
2021/06/04 04:58:46;;;;;;;44.60;30.48;;;;;;;17.55;100.00;102069.25;3612868;22;20057;-66
2021/06/04 05:01:13;;;;;;;42.10;28.35;;;;;;;17.65;100.00;102061.88;3570681;40;20070;-65
2021/06/04 05:03:39;;;;;;;41.88;29.00;;;;;;;17.97;100.00;102066.00;3572068;40;20056;-66
2021/06/04 05:06:05;;;;;;;36.08;27.50;;;;;;;18.94;100.00;102060.63;3572556;40;20812;-66
2021/06/04 05:08:31;;;;;;;36.90;26.98;;;;;;;18.59;100.00;102057.81;3572615;39;20049;-66
2021/06/04 05:10:57;;;;;;;36.28;26.08;;;;;;;17.30;100.00;102055.38;3567953;39;20060;-66
2021/06/04 05:13:24;;;;;;;38.33;27.35;;;;;;;17.29;100.00;102049.06;3570882;39;20455;-66
2021/06/04 05:15:51;;;;;;;35.90;26.40;;;;;;;17.42;100.00;102046.00;3575595;39;20150;-66
2021/06/04 05:18:18;;;;;;;39.20;25.63;;;;;;;17.37;100.00;102042.84;3574212;39;20171;-66
2021/06/04 05:20:46;;;;;;;39.08;25.80;;;;;;;17.22;100.00;102047.94;3574444;39;20491;-66
2021/06/04 05:23:13;;;;;;;40.00;27.50;;;;;;;17.12;100.00;102048.03;3570783;40;20472;-66
2021/06/04 05:25:42;;;;;;;41.55;26.50;;;;;;;17.12;100.00;102050.75;3573235;40;20059;-66
2021/06/04 05:28:10;;;;;;;40.72;26.08;;;;;;;17.23;100.00;102048.84;3570971;39;20055;-66
2021/06/04 05:30:38;;;;;;;38.57;26.87;;;;;;;17.35;100.00;102047.59;3574931;39;20412;-66
2021/06/04 05:33:07;;;;;;;39.83;27.08;;;;;;;17.64;100.00;102041.13;3582390;39;20287;-66
2021/06/04 05:35:33;;;;;;;39.08;26.83;;;;;;;17.43;100.00;102042.28;3587316;39;20066;-65
2021/06/04 05:38:00;;;;;;;42.53;27.48;;;;;;;17.54;100.00;102041.19;3586918;39;20051;-65
2021/06/04 05:40:29;;;;;;;37.35;25.73;;;;;;;17.59;100.00;102046.16;3584838;39;20072;-66
2021/06/04 05:42:55;;;;;;;;;;;;;;;17.85;100.00;102047.13;3581731;40;20432;-66
2021/06/04 05:47:48;;;;;;;37.42;26.17;;;;;;;17.93;100.00;102040.97;3617761;22;20049;-66
2021/06/04 05:50:19;;;;;;;31.85;23.73;;;;;;;17.84;100.00;102052.72;3587284;39;20134;-66
2021/06/04 05:52:46;;;;;;;40.20;24.92;;;;;;;17.82;100.00;102047.44;3586933;39;20052;-66
2021/06/04 05:55:16;;;;;;;37.88;25.48;;;;;;;17.87;100.00;102052.41;3587976;39;20059;-66
2021/06/04 05:57:42;;;;;;;38.80;25.75;;;;;;;17.98;100.00;102062.28;3588357;40;20046;-66
2021/06/04 06:00:13;;;;;;;33.70;24.05;;;;;;;17.98;100.00;102059.56;3587428;39;20052;-66
2021/06/04 06:02:40;;;;;;;37.83;25.25;;;;;;;18.20;100.00;102059.06;3587739;39;20054;-66
2021/06/04 06:05:07;;;;;;;36.58;24.98;;;;;;;18.25;100.00;102065.91;3586297;39;20070;-66
2021/06/04 06:07:35;;;;;;;34.85;24.85;;;;;;;18.51;100.00;102055.91;3587262;39;20040;-66
2021/06/04 06:10:01;;;;;;;37.47;26.33;;;;;;;18.63;100.00;102052.91;3586273;39;20120;-66
2021/06/04 06:12:27;;;;;;;35.35;24.75;;;;;;;18.94;100.00;102049.72;3588571;39;20439;-65
2021/06/04 06:14:52;;;;;;;34.88;25.35;;;;;;;19.12;100.00;102053.22;3588135;40;20484;-66
2021/06/04 06:17:18;;;;;;;37.17;25.10;;;;;;;19.18;100.00;102058.00;3587548;39;20052;-66
2021/06/04 06:19:44;;;;;;;36.90;25.98;;;;;;;19.35;100.00;102060.84;3586582;39;20414;-65
2021/06/04 06:22:12;;;;;;;39.30;26.38;;;;;;;19.01;100.00;102056.25;3586989;39;20055;-66
2021/06/04 06:24:39;;;;;;;33.65;24.13;;;;;;;19.76;100.00;102060.97;3588202;39;20167;-66
2021/06/04 06:27:06;;;;;;;32.75;23.02;;;;;;;19.65;100.00;102050.34;3588076;39;20044;-66
2021/06/04 06:29:35;;;;;;;31.35;24.60;;;;;;;19.31;100.00;102051.25;3588141;39;20068;-66
2021/06/04 06:32:03;;;;;;;33.95;21.77;;;;;;;19.22;100.00;102047.63;3588050;39;20052;-66
2021/06/04 06:34:29;;;;;;;32.28;21.63;;;;;;;19.03;100.00;102056.94;3587203;39;20059;-66
2021/06/04 06:36:55;;;;;;;31.92;20.13;;;;;;;19.04;100.00;102062.22;3588274;39;20043;-66
2021/06/04 06:39:25;;;;;;;26.42;19.67;;;;;;;19.20;100.00;102061.44;3588008;39;20439;-66
2021/06/04 06:41:54;;;;;;;27.65;19.45;;;;;;;19.23;100.00;102061.13;3588059;39;20492;-67
2021/06/04 06:44:21;;;;;;;30.20;19.88;;;;;;;19.39;100.00;102070.38;3587252;39;20115;-66
2021/06/04 06:46:47;;;;;;;30.42;21.42;;;;;;;19.19;100.00;102070.66;3588115;39;20063;-66
2021/06/04 06:49:14;;;;;;;32.10;21.70;;;;;;;19.42;100.00;102078.28;3588381;40;20051;-66
2021/06/04 06:51:41;;;;;;;29.70;19.80;;;;;;;19.93;100.00;102075.50;3588270;39;20125;-66
2021/06/04 06:54:09;;;;;;;31.95;19.58;;;;;;;20.00;100.00;102084.75;3588162;39;20061;-66
2021/06/04 06:56:36;;;;;;;30.33;20.38;;;;;;;20.25;100.00;102082.06;3589195;39;20387;-67
2021/06/04 06:59:04;;;;;;;25.65;18.42;;;;;;;20.50;100.00;102084.78;3589098;39;20481;-67
2021/06/04 07:01:30;;;;;;;27.73;19.10;;;;;;;20.35;100.00;102084.63;3588214;40;20083;-66
2021/06/04 07:03:56;;;;;;;27.25;18.10;;;;;;;20.26;100.00;102090.06;3588513;39;20044;-67
2021/06/04 07:06:26;;;;;;;27.02;18.65;;;;;;;20.17;100.00;102090.22;3588214;39;20134;-66
2021/06/04 07:08:52;;;;;;;24.55;17.85;;;;;;;19.99;100.00;102093.13;3588930;39;20052;-66
2021/06/04 07:11:19;;;;;;;26.83;16.60;;;;;;;20.20;100.00;102095.34;3587821;39;20364;-66
2021/06/04 07:13:45;;;;;;;23.80;17.83;;;;;;;20.27;100.00;102094.53;3587257;39;20494;-67
2021/06/04 07:16:13;;;;;;;22.83;16.08;;;;;;;20.90;100.00;102085.78;3586971;39;20049;-67
2021/06/04 07:18:40;;;;;;;22.07;16.70;;;;;;;21.04;100.00;102098.75;3588162;40;20648;-66
2021/06/04 07:21:08;;;;;;;26.23;19.50;;;;;;;20.90;100.00;102094.00;3588065;39;20059;-67
2021/06/04 07:23:35;;;;;;;23.63;17.95;;;;;;;20.75;100.00;102089.22;3588011;39;20377;-66
2021/06/04 07:26:02;;;;;;;29.42;17.70;;;;;;;21.14;100.00;102095.78;3588128;39;20417;-67
2021/06/04 07:28:31;;;;;;;25.55;18.02;;;;;;;21.18;100.00;102099.88;3588361;39;20112;-66
2021/06/04 07:30:59;;;;;;;29.58;17.65;;;;;;;21.32;100.00;102101.91;3587907;39;20055;-66
2021/06/04 07:33:29;;;;;;;24.33;18.20;;;;;;;21.18;100.00;102106.22;3587577;39;20044;-66
2021/06/04 07:35:58;;;;;;;26.77;18.35;;;;;;;21.23;100.00;102102.97;3587701;40;20116;-66
2021/06/04 07:38:24;;;;;;;21.00;16.20;;;;;;;21.02;100.00;102106.25;3588082;40;20346;-67
2021/06/04 07:40:51;;;;;;;21.95;16.15;;;;;;;21.51;100.00;102094.34;3587847;39;20141;-67
2021/06/04 07:43:20;;;;;;;20.33;15.57;;;;;;;21.57;100.00;102099.09;3587510;39;20052;-67
2021/06/04 07:45:47;;;;;;;21.17;15.50;;;;;;;21.88;100.00;102100.97;3588519;40;20041;-67
2021/06/04 07:48:16;;;;;;;24.17;15.50;;;;;;;21.96;100.00;102102.81;3587115;39;20380;-67
2021/06/04 07:50:44;;;;;;;;;;;;;;;22.10;100.00;102109.38;3589087;39;20137;-67
2021/06/04 07:53:13;;;;;;;21.70;13.57;;;;;;;22.30;100.00;102107.00;3587010;39;19938;-67
2021/06/04 07:55:40;;;;;;;17.65;12.02;;;;;;;22.74;100.00;102112.63;3588917;39;20056;-67
2021/06/04 08:01:21;;;;;;;20.63;13.75;;;;;;;22.92;100.00;102114.19;3619412;23;20066;-68
2021/06/04 08:03:47;;;;;;;19.40;12.93;;;;;;;22.98;100.00;102116.19;3596517;39;20112;-68
2021/06/04 08:06:18;;;;;;;20.33;12.30;;;;;;;22.41;100.00;102123.06;3596136;39;20055;-68
2021/06/04 08:08:44;;;;;;;16.90;11.32;;;;;;;22.59;100.00;102119.16;3598528;39;20036;-68
2021/06/04 08:11:19;;;;;;;14.02;10.48;;;;;;;22.58;100.00;102118.28;3598434;39;20095;-68
2021/06/04 08:16:46;;;;;;;19.33;13.85;;;;;;;22.73;100.00;102126.53;3691860;22;20293;-68
2021/06/04 08:19:12;;;;;;;19.27;14.15;;;;;;;22.80;100.00;102121.19;3567729;40;20037;-68
2021/06/04 08:21:42;;;;;;;20.75;12.70;;;;;;;22.85;100.00;102119.59;3568325;40;20044;-68
2021/06/04 08:24:12;;;;;;;20.85;14.23;;;;;;;23.12;100.00;102120.00;3567822;40;20499;-68
2021/06/04 08:26:39;;;;;;;16.27;13.15;;;;;;;23.25;100.00;102114.69;3568474;40;20058;-68
2021/06/04 08:29:06;;;;;;;17.70;13.32;;;;;;;23.71;100.00;102116.34;3568100;40;20438;-68
2021/06/04 08:31:32;;;;;;;22.05;14.93;;;;;;;23.75;100.00;102109.44;3567334;40;20052;-68
2021/06/04 08:33:59;;;;;;;27.02;16.52;;;;;;;23.60;100.00;102116.84;3566922;40;20053;-68
2021/06/04 08:36:31;;;;;;;25.42;16.00;;;;;;;23.51;100.00;102124.38;3568137;40;20045;-68
2021/06/04 08:38:59;;;;;;;23.02;17.95;;;;;;;23.34;100.00;102114.63;3567998;40;20147;-68
2021/06/04 08:41:32;;;;;;;;;;;;;;;23.71;100.00;102112.75;3568807;40;20086;-69
2021/06/04 08:44:20;;;;;;;21.92;16.42;;;;;;;23.55;100.00;102108.34;3567637;40;19940;-68
2021/06/04 08:46:54;;;;;;;24.10;16.02;;;;;;;23.70;100.00;102111.03;3560898;40;20041;-68
2021/06/04 08:49:31;;;;;;;22.83;16.50;;;;;;;23.93;100.00;102100.78;3567431;40;20639;-68
2021/06/04 08:52:14;;;;;;;23.35;15.57;;;;;;;23.56;100.00;102115.53;3568280;40;20358;-68
2021/06/04 08:54:47;;;;;;;24.30;16.73;;;;;;;23.50;100.00;102116.28;3556907;40;20437;-68
2021/06/04 08:57:25;;;;;;;21.50;16.98;;;;;;;23.77;100.00;102117.47;3557001;40;20038;-68
2021/06/04 08:59:54;;;;;;;24.17;16.87;;;;;;;24.10;100.00;102112.38;3557671;40;20142;-68
2021/06/04 09:02:37;;;;;;;21.17;15.20;;;;;;;23.87;100.00;102115.31;3557468;40;20053;-69
2021/06/04 09:05:06;;;;;;;29.98;18.02;;;;;;;24.10;100.00;102109.63;3557232;40;20049;-68
2021/06/04 09:07:36;;;;;;;19.23;15.82;;;;;;;23.71;100.00;102099.84;3557099;40;20051;-68
2021/06/04 09:10:11;;;;;;;20.13;14.48;;;;;;;24.31;100.00;102102.44;3556605;40;20413;-69
2021/06/04 09:12:42;;;;;;;20.80;14.25;;;;;;;24.63;100.00;102105.69;3559961;40;20062;-68
2021/06/04 09:15:11;;;;;;;23.40;16.15;;;;;;;24.68;100.00;102105.94;3567998;40;20117;-68
2021/06/04 09:17:42;;;;;;;;;;;;;;;24.21;100.00;102101.91;3571372;40;20076;-68
2021/06/04 09:20:12;;;;;;;21.10;14.20;;;;;;;24.43;100.00;102105.50;3577048;40;20041;-69
2021/06/04 09:22:41;;;;;;;23.30;16.25;;;;;;;24.62;100.00;102102.09;3578281;40;20059;-68
2021/06/04 09:25:12;;;;;;;18.85;14.80;;;;;;;24.09;100.00;102099.69;3577153;40;20678;-69
2021/06/04 09:27:41;;;;;;;18.05;12.38;;;;;;;24.75;100.00;102108.72;3578202;40;20389;-68
2021/06/04 09:30:19;;;;;;;16.75;13.15;;;;;;;24.08;100.00;102099.88;3576744;40;20033;-68
2021/06/04 09:33:01;;;;;;;18.60;13.05;;;;;;;24.52;100.00;102092.44;3576744;40;20064;-68
2021/06/04 09:35:28;;;;;;;19.65;12.50;;;;;;;25.33;100.00;102100.25;3577432;40;20050;-69
2021/06/04 09:38:07;;;;;;;15.23;10.57;;;;;;;25.43;100.00;102092.44;3577605;40;20048;-68
2021/06/04 09:40:35;;;;;;;16.15;10.57;;;;;;;25.63;100.00;102084.25;3577386;40;20580;-69
2021/06/04 09:43:12;;;;;;;16.50;11.10;;;;;;;25.36;100.00;102097.06;3577285;40;20043;-68
2021/06/04 09:45:42;;;;;;;14.90;10.10;;;;;;;25.68;100.00;102091.91;3576892;40;20412;-68
2021/06/04 09:48:13;;;;;;;14.57;10.95;;;;;;;25.70;100.00;102098.91;3576438;40;20222;-68
2021/06/04 09:50:41;;;;;;;16.00;10.90;;;;;;;25.72;100.00;102098.69;3576269;40;20460;-68
2021/06/04 09:53:12;;;;;;;18.08;10.90;;;;;;;26.09;100.00;102101.16;3577018;40;20049;-68
2021/06/04 09:55:41;;;;;;;12.68;9.18;;;;;;;26.28;100.00;102096.72;3577242;40;20337;-68
2021/06/04 09:58:17;;;;;;;14.40;10.13;;;;;;;26.32;100.00;102104.34;3575825;40;20116;-68
2021/06/04 10:00:46;;;;;;;18.58;11.27;;;;;;;25.83;100.00;102094.50;3577385;40;20057;-68
2021/06/04 10:03:25;;;;;;;14.20;10.77;;;;;;;25.52;100.00;102093.97;3576429;40;20048;-69
2021/06/04 10:06:06;;;;;;;13.75;10.70;;;;;;;25.35;100.00;102093.47;3576772;40;20216;-69
2021/06/04 10:08:40;;;;;;;13.93;10.20;;;;;;;25.88;100.00;102095.56;3577472;40;20053;-68
2021/06/04 10:11:11;;;;;;;16.05;10.40;;;;;;;26.00;100.00;102095.84;3577552;40;20060;-69
2021/06/04 10:13:46;;;;;;;15.45;10.65;;;;;;;26.67;98.07;102089.50;3575623;40;20299;-69
2021/06/04 10:16:31;;;;;;;13.35;9.43;;;;;;;26.62;98.81;102083.75;3577465;40;20045;-69
2021/06/04 10:18:57;;;;;;;12.07;9.23;;;;;;;26.63;100.00;102086.31;3576472;40;20044;-69
2021/06/04 10:21:31;;;;;;;14.18;9.82;;;;;;;26.61;100.00;102091.22;3576503;40;20154;-69
2021/06/04 10:23:59;;;;;;;16.02;10.15;;;;;;;26.80;95.82;102083.16;3575769;40;20048;-69
2021/06/04 10:26:29;;;;;;;15.23;11.15;;;;;;;26.93;88.89;102088.66;3575840;40;20172;-69
2021/06/04 10:31:44;;;;;;;14.82;8.57;;;;;;;27.02;100.00;102072.69;3616348;22;20179;-69
2021/06/04 10:34:33;;;;;;;13.32;9.55;;;;;;;26.79;95.72;102085.06;3585826;39;20387;-69
2021/06/04 10:37:01;;;;;;;15.48;9.55;;;;;;;27.07;90.84;102084.75;3586213;39;20056;-69
2021/06/04 10:39:32;;;;;;;12.23;9.75;;;;;;;26.90;95.30;102084.41;3585971;39;20056;-69
2021/06/04 10:42:06;;;;;;;15.00;10.23;;;;;;;26.43;98.86;102077.19;3586730;39;20333;-69
2021/06/04 10:44:46;;;;;;;13.48;9.75;;;;;;;26.73;94.79;102086.75;3586584;39;20044;-68
2021/06/04 10:47:21;;;;;;;14.30;10.43;;;;;;;26.91;91.34;102091.63;3585264;39;20056;-69
2021/06/04 10:49:57;;;;;;;13.82;9.70;;;;;;;27.21;94.15;102091.13;3586847;40;20051;-68
2021/06/04 10:52:32;;;;;;;11.45;8.00;;;;;;;27.69;85.72;102077.97;3586387;39;20082;-69
2021/06/04 10:58:21;;;;;;;12.75;8.20;;;;;;;27.90;84.48;102079.53;3633735;22;20333;-69
2021/06/04 11:00:50;;;;;;;9.00;6.95;;;;;;;27.72;75.12;102069.22;3613305;39;20054;-66
2021/06/04 11:03:19;;;;;;;11.15;7.20;;;;;;;27.55;83.26;102075.28;3616576;39;20123;-66
2021/06/04 11:05:54;;;;;;;9.75;6.55;;;;;;;27.46;78.65;102076.59;3616099;39;20069;-68
2021/06/04 11:08:47;;;;;;;10.07;6.85;;;;;;;27.48;74.84;102079.97;3615265;39;20098;-68
2021/06/04 11:11:26;;;;;;;8.35;7.15;;;;;;;26.55;90.11;102087.38;3615730;39;20416;-68
2021/06/04 11:14:06;;;;;;;12.38;8.13;;;;;;;26.60;86.37;102083.13;3615488;39;20034;-69
2021/06/04 11:16:39;;;;;;;9.18;6.82;;;;;;;27.01;89.64;102080.13;3615958;39;20097;-68
2021/06/04 11:19:12;;;;;;;10.20;7.82;;;;;;;27.05;75.69;102069.50;3614768;39;20087;-69
2021/06/04 11:21:42;;;;;;;10.65;7.35;;;;;;;27.36;74.91;102065.16;3615914;39;20412;-68
2021/06/04 11:24:14;;;;;;;10.20;6.93;;;;;;;27.62;75.71;102058.66;3615398;39;20437;-68
2021/06/04 11:26:44;;;;;;;11.65;7.43;;;;;;;28.09;75.12;102059.22;3614953;39;20039;-69
2021/06/04 12:15:43;;;;;;;10.60;7.88;;;;;;;28.29;76.83;102025.84;3643846;22;20048;-69
2021/06/04 12:18:50;;;;;;;14.07;8.27;;;;;;;28.42;73.74;102016.56;3596713;39;20070;-67
2021/06/04 12:21:59;;;;;;;10.55;8.05;;;;;;;28.63;74.75;102029.16;3596510;39;20044;-68
2021/06/04 12:24:43;;;;;;;;;;;;;;;28.60;70.07;102009.38;3597351;39;20050;-68
2021/06/04 12:27:47;;;;;;;12.68;8.68;;;;;;;28.87;63.32;102012.69;3597938;39;19940;-67
2021/06/04 12:30:47;;;;;;;11.27;8.95;;;;;;;28.20;77.79;102013.34;3586696;39;20048;-69
2021/06/04 12:33:35;;;;;;;13.00;9.02;;;;;;;28.54;70.40;101993.66;3596533;39;20070;-69